RYR98AR EDDB-LIRF
Flight info
| Callsign | RYR98AR |
|---|---|
| Flight time | 1h 58m |
| Altitude | 38000 |
| Route | LUROS4B LUROS Y211 BEBKU Z36 MAREM DCT YUJKI DCT PEMEL DCT RUDAP DCT SIMBA/N0446F390 DCT OBEDI DCT CHI DCT EKTUK DCT GAVRA DCT RITEB |
| Aircraft | B38M/M-SDE1FGHILORVWXY/HB1 |
Departure
| Time | 2026-05-06 08:59 |
|---|---|
| Airport | Berlin Brandenburg Airport (EDDB) |
Arrival
| Time | 2026-05-06 10:58 |
|---|---|
| Airport | Rome–Fiumicino Leonardo da Vinci International Airport (LIRF) |
| Time | Latitude | Longitude | Altitude | Speed | Heading |
|---|---|---|---|---|---|
| 2026-05-06 08:35 | 52.36795 | 13.50736 | 157 ft | 0 kts | 159° |
| 2026-05-06 08:49 | 52.36796 | 13.50736 | 157 ft | 1 kts | 159° |
| 2026-05-06 08:49 | 52.36810 | 13.50726 | 157 ft | 3 kts | 159° |
| 2026-05-06 08:49 | 52.36828 | 13.50715 | 157 ft | 2 kts | 159° |
| 2026-05-06 08:49 | 52.36844 | 13.50706 | 157 ft | 3 kts | 174° |
| 2026-05-06 08:50 | 52.36859 | 13.50710 | 157 ft | 3 kts | 221° |
| 2026-05-06 08:50 | 52.36870 | 13.50735 | 157 ft | 2 kts | 247° |
| 2026-05-06 08:50 | 52.36873 | 13.50745 | 157 ft | 1 kts | 249° |
| 2026-05-06 08:53 | 52.36868 | 13.50725 | 157 ft | 5 kts | 249° |
| 2026-05-06 08:53 | 52.36848 | 13.50643 | 157 ft | 10 kts | 249° |
| 2026-05-06 08:53 | 52.36823 | 13.50536 | 157 ft | 10 kts | 249° |
| 2026-05-06 08:54 | 52.36796 | 13.50423 | 157 ft | 11 kts | 249° |
| 2026-05-06 08:54 | 52.36770 | 13.50317 | 157 ft | 8 kts | 249° |
| 2026-05-06 08:54 | 52.36758 | 13.50237 | 157 ft | 6 kts | 278° |
| 2026-05-06 08:54 | 52.36777 | 13.50194 | 157 ft | 5 kts | 322° |
| 2026-05-06 08:55 | 52.36822 | 13.50161 | 157 ft | 10 kts | 338° |
| 2026-05-06 08:55 | 52.36899 | 13.50093 | 157 ft | 13 kts | 303° |
| 2026-05-06 08:55 | 52.36877 | 13.49956 | 157 ft | 14 kts | 248° |
| 2026-05-06 08:55 | 52.36838 | 13.49792 | 157 ft | 17 kts | 248° |
| 2026-05-06 08:56 | 52.36793 | 13.49598 | 157 ft | 20 kts | 249° |
| 2026-05-06 08:56 | 52.36741 | 13.49378 | 157 ft | 22 kts | 248° |
| 2026-05-06 08:56 | 52.36682 | 13.49131 | 157 ft | 25 kts | 249° |
| 2026-05-06 08:56 | 52.36623 | 13.48882 | 157 ft | 21 kts | 249° |
| 2026-05-06 08:57 | 52.36571 | 13.48662 | 157 ft | 20 kts | 249° |
| 2026-05-06 08:57 | 52.36528 | 13.48482 | 157 ft | 9 kts | 248° |
| 2026-05-06 08:57 | 52.36522 | 13.48390 | 157 ft | 8 kts | 294° |
| 2026-05-06 08:57 | 52.36571 | 13.48337 | 157 ft | 10 kts | 338° |
| 2026-05-06 08:58 | 52.36644 | 13.48291 | 157 ft | 13 kts | 340° |
| 2026-05-06 08:58 | 52.36728 | 13.48341 | 157 ft | 15 kts | 56° |
| 2026-05-06 08:58 | 52.36772 | 13.48510 | 157 ft | 18 kts | 69° |
| 2026-05-06 08:58 | 52.36820 | 13.48717 | 157 ft | 23 kts | 69° |
| 2026-05-06 08:59 | 52.36968 | 13.49341 | 157 ft | 102 kts | 69° |
| 2026-05-06 08:59 | 52.37330 | 13.50856 | 179 ft | 172 kts | 65° |
| 2026-05-06 08:59 | 52.37798 | 13.52847 | 700 ft | 203 kts | 67° |
| 2026-05-06 08:59 | 52.38307 | 13.55022 | 1624 ft | 208 kts | 68° |
| 2026-05-06 09:00 | 52.38793 | 13.57081 | 2953 ft | 166 kts | 70° |
| 2026-05-06 09:00 | 52.39235 | 13.58976 | 3138 ft | 188 kts | 69° |
| 2026-05-06 09:00 | 52.39709 | 13.60968 | 3220 ft | 184 kts | 70° |
| 2026-05-06 09:00 | 52.40182 | 13.62964 | 3487 ft | 193 kts | 69° |
| 2026-05-06 09:01 | 52.40678 | 13.65065 | 3982 ft | 202 kts | 68° |
| 2026-05-06 09:01 | 52.41186 | 13.67220 | 4706 ft | 204 kts | 68° |
| 2026-05-06 09:01 | 52.41728 | 13.69515 | 4884 ft | 224 kts | 68° |
| 2026-05-06 09:01 | 52.42310 | 13.71985 | 5292 ft | 243 kts | 68° |
| 2026-05-06 09:02 | 52.42939 | 13.74661 | 5701 ft | 258 kts | 69° |
| 2026-05-06 09:02 | 52.43592 | 13.77444 | 6292 ft | 264 kts | 69° |
| 2026-05-06 09:02 | 52.44331 | 13.80214 | 6854 ft | 268 kts | 64° |
| 2026-05-06 09:02 | 52.45138 | 13.82963 | 7695 ft | 265 kts | 65° |
| 2026-05-06 09:03 | 52.45933 | 13.85704 | 8667 ft | 269 kts | 66° |
| 2026-05-06 09:03 | 52.46754 | 13.88561 | 9348 ft | 285 kts | 66° |
| 2026-05-06 09:03 | 52.47614 | 13.91570 | 10031 ft | 297 kts | 66° |
| 2026-05-06 09:03 | 52.48502 | 13.94679 | 10759 ft | 305 kts | 66° |
| 2026-05-06 09:04 | 52.49409 | 13.97864 | 11567 ft | 311 kts | 66° |
| 2026-05-06 09:04 | 52.50338 | 14.01104 | 12362 ft | 317 kts | 66° |
| 2026-05-06 09:04 | 52.51281 | 14.04404 | 13146 ft | 323 kts | 68° |
| 2026-05-06 09:04 | 52.51860 | 14.08005 | 13648 ft | 332 kts | 90° |
| 2026-05-06 09:05 | 52.51522 | 14.11758 | 14108 ft | 335 kts | 116° |
| 2026-05-06 09:05 | 52.50299 | 14.14973 | 14602 ft | 333 kts | 140° |
| 2026-05-06 09:05 | 52.48419 | 14.17133 | 15119 ft | 332 kts | 161° |
| 2026-05-06 09:05 | 52.46196 | 14.18067 | 15726 ft | 330 kts | 176° |
| 2026-05-06 09:06 | 52.43904 | 14.18541 | 16374 ft | 334 kts | 177° |
| 2026-05-06 09:06 | 52.41583 | 14.18976 | 17044 ft | 337 kts | 177° |
| 2026-05-06 09:06 | 52.39236 | 14.19385 | 17687 ft | 341 kts | 178° |
| 2026-05-06 09:06 | 52.36862 | 14.19778 | 18280 ft | 345 kts | 178° |
| 2026-05-06 09:07 | 52.34502 | 14.19904 | 18808 ft | 343 kts | 187° |
| 2026-05-06 09:07 | 52.32101 | 14.19691 | 19336 ft | 347 kts | 186° |
| 2026-05-06 09:07 | 52.29650 | 14.19523 | 19875 ft | 350 kts | 186° |
| 2026-05-06 09:07 | 52.27203 | 14.19376 | 20400 ft | 353 kts | 185° |
| 2026-05-06 09:08 | 52.24742 | 14.19241 | 20923 ft | 356 kts | 185° |
| 2026-05-06 09:08 | 52.22293 | 14.19111 | 21433 ft | 358 kts | 185° |
| 2026-05-06 09:08 | 52.19759 | 14.18980 | 21941 ft | 361 kts | 185° |
| 2026-05-06 09:08 | 52.17237 | 14.18850 | 22426 ft | 364 kts | 185° |
| 2026-05-06 09:09 | 52.14702 | 14.18721 | 22895 ft | 366 kts | 185° |
| 2026-05-06 09:09 | 52.12143 | 14.18590 | 23372 ft | 369 kts | 186° |
| 2026-05-06 09:09 | 52.09570 | 14.18459 | 23773 ft | 372 kts | 185° |
| 2026-05-06 09:09 | 52.07012 | 14.18329 | 24168 ft | 374 kts | 185° |
| 2026-05-06 09:10 | 52.04399 | 14.18196 | 24578 ft | 377 kts | 185° |
| 2026-05-06 09:10 | 52.01768 | 14.18062 | 25008 ft | 380 kts | 185° |
| 2026-05-06 09:10 | 51.99121 | 14.17928 | 25422 ft | 382 kts | 185° |
| 2026-05-06 09:10 | 51.96451 | 14.17793 | 25839 ft | 385 kts | 185° |
| 2026-05-06 09:11 | 51.93766 | 14.17656 | 26244 ft | 388 kts | 185° |
| 2026-05-06 09:11 | 51.91064 | 14.17475 | 26645 ft | 389 kts | 189° |
| 2026-05-06 09:11 | 51.88477 | 14.16346 | 26988 ft | 385 kts | 205° |
| 2026-05-06 09:11 | 51.85995 | 14.14655 | 27286 ft | 389 kts | 204° |
| 2026-05-06 09:12 | 51.83492 | 14.12976 | 27551 ft | 391 kts | 205° |
| 2026-05-06 09:12 | 51.80980 | 14.11266 | 27777 ft | 392 kts | 205° |
| 2026-05-06 09:12 | 51.78465 | 14.09537 | 27991 ft | 394 kts | 205° |
| 2026-05-06 09:12 | 51.75943 | 14.07798 | 28148 ft | 395 kts | 205° |
| 2026-05-06 09:13 | 51.73409 | 14.06050 | 28284 ft | 396 kts | 205° |
| 2026-05-06 09:13 | 51.68335 | 14.02554 | 28404 ft | 397 kts | 205° |
| 2026-05-06 09:14 | 51.63274 | 13.99075 | 28614 ft | 395 kts | 205° |
| 2026-05-06 09:14 | 51.60749 | 13.97343 | 28745 ft | 395 kts | 205° |
| 2026-05-06 09:14 | 51.58215 | 13.95606 | 28900 ft | 396 kts | 205° |
| 2026-05-06 09:14 | 51.55673 | 13.93866 | 29067 ft | 397 kts | 205° |
| 2026-05-06 09:15 | 51.53124 | 13.92123 | 29261 ft | 399 kts | 205° |
| 2026-05-06 09:15 | 51.50568 | 13.90377 | 29486 ft | 400 kts | 205° |
| 2026-05-06 09:15 | 51.48000 | 13.88626 | 29738 ft | 402 kts | 205° |
| 2026-05-06 09:15 | 51.45384 | 13.87022 | 29972 ft | 406 kts | 197° |
| 2026-05-06 09:16 | 51.42607 | 13.86239 | 30428 ft | 403 kts | 194° |
| 2026-05-06 09:16 | 51.39854 | 13.85401 | 30738 ft | 404 kts | 194° |
| 2026-05-06 09:16 | 51.37081 | 13.84575 | 30990 ft | 407 kts | 194° |
| 2026-05-06 09:16 | 51.34291 | 13.83762 | 31275 ft | 408 kts | 194° |
| 2026-05-06 09:17 | 51.31491 | 13.82952 | 31542 ft | 410 kts | 194° |
| 2026-05-06 09:17 | 51.28676 | 13.82141 | 31800 ft | 412 kts | 194° |
| 2026-05-06 09:17 | 51.25847 | 13.81326 | 32066 ft | 414 kts | 194° |
| 2026-05-06 09:17 | 51.23005 | 13.80510 | 32315 ft | 416 kts | 194° |
| 2026-05-06 09:18 | 51.20156 | 13.79693 | 32601 ft | 416 kts | 194° |
| 2026-05-06 09:18 | 51.17315 | 13.78879 | 32950 ft | 415 kts | 194° |
| 2026-05-06 09:18 | 51.14474 | 13.78067 | 33305 ft | 414 kts | 194° |
| 2026-05-06 09:18 | 51.11642 | 13.77257 | 33654 ft | 414 kts | 194° |
| 2026-05-06 09:19 | 51.08807 | 13.76448 | 33951 ft | 413 kts | 194° |
| 2026-05-06 09:19 | 51.06017 | 13.75652 | 34190 ft | 414 kts | 194° |
| 2026-05-06 09:19 | 51.03180 | 13.74845 | 34420 ft | 414 kts | 194° |
| 2026-05-06 09:19 | 51.00340 | 13.74038 | 34644 ft | 415 kts | 194° |
| 2026-05-06 09:20 | 50.97499 | 13.73230 | 34900 ft | 414 kts | 194° |
| 2026-05-06 09:20 | 50.94667 | 13.72428 | 35157 ft | 414 kts | 194° |
| 2026-05-06 09:20 | 50.91831 | 13.71624 | 35371 ft | 414 kts | 194° |
| 2026-05-06 09:20 | 50.89010 | 13.70721 | 35583 ft | 412 kts | 199° |
| 2026-05-06 09:21 | 50.86270 | 13.69398 | 35770 ft | 413 kts | 199° |
| 2026-05-06 09:21 | 50.83507 | 13.68151 | 35957 ft | 414 kts | 199° |
| 2026-05-06 09:21 | 50.80734 | 13.66923 | 36134 ft | 414 kts | 198° |
| 2026-05-06 09:21 | 50.77952 | 13.65701 | 36297 ft | 415 kts | 198° |
| 2026-05-06 09:22 | 50.75169 | 13.64484 | 36480 ft | 414 kts | 198° |
| 2026-05-06 09:22 | 50.72401 | 13.63281 | 36680 ft | 413 kts | 197° |
| 2026-05-06 09:22 | 50.69563 | 13.62420 | 36835 ft | 416 kts | 193° |
| 2026-05-06 09:22 | 50.66708 | 13.61669 | 36974 ft | 417 kts | 193° |
| 2026-05-06 09:23 | 50.63843 | 13.60934 | 37109 ft | 417 kts | 192° |
| 2026-05-06 09:23 | 50.60977 | 13.60206 | 37260 ft | 418 kts | 192° |
| 2026-05-06 09:23 | 50.58105 | 13.59479 | 37391 ft | 418 kts | 192° |
| 2026-05-06 09:23 | 50.55232 | 13.58754 | 37508 ft | 419 kts | 192° |
| 2026-05-06 09:24 | 50.52358 | 13.58028 | 37618 ft | 418 kts | 192° |
| 2026-05-06 09:24 | 50.49490 | 13.57307 | 37776 ft | 417 kts | 192° |
| 2026-05-06 09:24 | 50.46623 | 13.56586 | 37811 ft | 418 kts | 192° |
| 2026-05-06 09:25 | 50.40890 | 13.55146 | 37796 ft | 416 kts | 192° |
| 2026-05-06 09:25 | 50.35168 | 13.53713 | 37795 ft | 417 kts | 192° |
| 2026-05-06 09:26 | 50.29444 | 13.52282 | 37797 ft | 417 kts | 192° |
| 2026-05-06 09:26 | 50.23716 | 13.50854 | 37800 ft | 417 kts | 192° |
| 2026-05-06 09:27 | 50.17992 | 13.49431 | 37806 ft | 417 kts | 192° |
| 2026-05-06 09:27 | 50.12264 | 13.48010 | 37812 ft | 417 kts | 192° |
| 2026-05-06 09:28 | 50.06540 | 13.46593 | 37807 ft | 416 kts | 192° |
| 2026-05-06 09:28 | 50.00868 | 13.45192 | 37809 ft | 416 kts | 192° |
| 2026-05-06 09:29 | 49.95152 | 13.43785 | 37821 ft | 416 kts | 192° |
| 2026-05-06 09:29 | 49.89443 | 13.42383 | 37818 ft | 415 kts | 192° |
| 2026-05-06 09:30 | 49.83726 | 13.40981 | 37815 ft | 417 kts | 192° |
| 2026-05-06 09:30 | 49.77986 | 13.39578 | 37827 ft | 418 kts | 192° |
| 2026-05-06 09:31 | 49.72241 | 13.38176 | 37830 ft | 418 kts | 192° |
| 2026-05-06 09:31 | 49.66492 | 13.36777 | 37828 ft | 418 kts | 192° |
| 2026-05-06 09:32 | 49.60758 | 13.35385 | 37830 ft | 417 kts | 192° |
| 2026-05-06 09:32 | 49.55023 | 13.33994 | 37830 ft | 417 kts | 192° |
| 2026-05-06 09:33 | 49.49287 | 13.32607 | 37823 ft | 417 kts | 192° |
| 2026-05-06 09:33 | 49.43556 | 13.31224 | 37829 ft | 417 kts | 192° |
| 2026-05-06 09:34 | 49.38809 | 13.30081 | 37827 ft | 412 kts | 192° |
| 2026-05-06 09:34 | 49.33176 | 13.28727 | 37817 ft | 409 kts | 192° |
| 2026-05-06 09:35 | 49.27556 | 13.27380 | 37822 ft | 409 kts | 193° |
| 2026-05-06 09:35 | 49.21930 | 13.25989 | 37814 ft | 409 kts | 193° |
| 2026-05-06 09:36 | 49.16336 | 13.24580 | 37819 ft | 404 kts | 193° |
| 2026-05-06 09:36 | 49.10806 | 13.23193 | 37819 ft | 402 kts | 193° |
| 2026-05-06 09:37 | 49.05277 | 13.21809 | 37820 ft | 403 kts | 193° |
| 2026-05-06 09:37 | 48.99743 | 13.20427 | 37819 ft | 403 kts | 193° |
| 2026-05-06 09:38 | 48.94215 | 13.19050 | 37812 ft | 402 kts | 192° |
| 2026-05-06 09:38 | 48.88691 | 13.17677 | 37809 ft | 402 kts | 192° |
| 2026-05-06 09:39 | 48.83165 | 13.16306 | 37822 ft | 402 kts | 192° |
| 2026-05-06 09:39 | 48.77641 | 13.14939 | 37821 ft | 402 kts | 192° |
| 2026-05-06 09:40 | 48.72123 | 13.13576 | 37820 ft | 401 kts | 192° |
| 2026-05-06 09:40 | 48.63889 | 13.11549 | 37812 ft | 401 kts | 192° |
| 2026-05-06 09:41 | 48.58373 | 13.10194 | 37808 ft | 402 kts | 193° |
| 2026-05-06 09:41 | 48.52854 | 13.08842 | 37812 ft | 402 kts | 193° |
| 2026-05-06 09:42 | 48.47331 | 13.07492 | 37812 ft | 402 kts | 193° |
| 2026-05-06 09:42 | 48.41807 | 13.06144 | 37808 ft | 402 kts | 193° |
| 2026-05-06 09:43 | 48.36284 | 13.04800 | 37812 ft | 402 kts | 193° |
| 2026-05-06 09:43 | 48.30752 | 13.03456 | 37791 ft | 405 kts | 192° |
| 2026-05-06 09:44 | 48.25164 | 13.02112 | 37795 ft | 408 kts | 190° |
| 2026-05-06 09:44 | 48.22319 | 13.02130 | 37790 ft | 413 kts | 174° |
| 2026-05-06 09:44 | 48.19488 | 13.03001 | 37807 ft | 417 kts | 173° |
| 2026-05-06 09:45 | 48.13805 | 13.04872 | 37808 ft | 419 kts | 172° |
| 2026-05-06 09:45 | 48.08131 | 13.06842 | 37804 ft | 419 kts | 172° |
| 2026-05-06 09:46 | 48.02457 | 13.08833 | 37801 ft | 419 kts | 172° |
| 2026-05-06 09:46 | 47.96787 | 13.10823 | 37787 ft | 419 kts | 172° |
| 2026-05-06 09:47 | 47.91113 | 13.12810 | 37794 ft | 419 kts | 172° |
| 2026-05-06 09:47 | 47.85422 | 13.14798 | 37797 ft | 422 kts | 172° |
| 2026-05-06 09:48 | 47.79703 | 13.16792 | 37785 ft | 422 kts | 172° |
| 2026-05-06 09:48 | 47.73980 | 13.18782 | 37800 ft | 423 kts | 172° |
| 2026-05-06 09:49 | 47.68279 | 13.20759 | 37745 ft | 423 kts | 172° |
| 2026-05-06 09:49 | 47.62564 | 13.22739 | 37775 ft | 420 kts | 172° |
| 2026-05-06 09:50 | 47.56889 | 13.24699 | 37798 ft | 420 kts | 172° |
| 2026-05-06 09:50 | 47.51180 | 13.26666 | 37795 ft | 420 kts | 172° |
| 2026-05-06 09:51 | 47.45498 | 13.28621 | 37783 ft | 419 kts | 173° |
| 2026-05-06 09:51 | 47.39859 | 13.30557 | 37790 ft | 413 kts | 173° |
| 2026-05-06 09:52 | 47.34248 | 13.32241 | 37778 ft | 406 kts | 184° |
| 2026-05-06 09:52 | 47.31500 | 13.31810 | 37805 ft | 393 kts | 198° |
| 2026-05-06 09:52 | 47.28850 | 13.30761 | 37811 ft | 396 kts | 199° |
| 2026-05-06 09:53 | 47.23587 | 13.28444 | 37807 ft | 395 kts | 201° |
| 2026-05-06 09:53 | 47.18325 | 13.25967 | 37881 ft | 398 kts | 201° |
| 2026-05-06 09:54 | 47.13040 | 13.23428 | 37812 ft | 398 kts | 201° |
| 2026-05-06 09:54 | 47.07774 | 13.20898 | 37842 ft | 401 kts | 201° |
| 2026-05-06 09:55 | 47.02474 | 13.18355 | 37834 ft | 402 kts | 202° |
| 2026-05-06 09:55 | 46.97170 | 13.15676 | 37679 ft | 397 kts | 224° |
| 2026-05-06 09:56 | 46.95777 | 13.12378 | 33426 ft | 434 kts | 255° |
| 2026-05-06 09:56 | 46.95126 | 13.08136 | 33964 ft | 400 kts | 253° |
| 2026-05-06 09:56 | 46.94371 | 13.04341 | 33836 ft | 382 kts | 243° |
| 2026-05-06 09:56 | 46.92872 | 13.01198 | 33874 ft | 376 kts | 224° |
| 2026-05-06 09:57 | 46.90719 | 12.99105 | 34526 ft | 372 kts | 207° |
| 2026-05-06 09:57 | 46.88229 | 12.98133 | 34812 ft | 384 kts | 191° |
| 2026-05-06 09:57 | 46.85499 | 12.98348 | 34875 ft | 403 kts | 176° |
| 2026-05-06 09:57 | 46.82745 | 12.99062 | 35089 ft | 397 kts | 186° |
| 2026-05-06 09:58 | 46.80103 | 12.98486 | 35341 ft | 379 kts | 205° |
| 2026-05-06 09:58 | 46.77639 | 12.97119 | 35470 ft | 384 kts | 201° |
| 2026-05-06 09:58 | 46.75046 | 12.96064 | 35599 ft | 388 kts | 201° |
| 2026-05-06 09:58 | 46.72444 | 12.94988 | 35796 ft | 389 kts | 201° |
| 2026-05-06 09:59 | 46.69836 | 12.93902 | 35993 ft | 390 kts | 201° |
| 2026-05-06 09:59 | 46.67216 | 12.92811 | 36132 ft | 393 kts | 201° |
| 2026-05-06 09:59 | 46.61940 | 12.90615 | 36475 ft | 395 kts | 200° |
| 2026-05-06 10:00 | 46.59283 | 12.89514 | 36656 ft | 397 kts | 200° |
| 2026-05-06 10:00 | 46.56627 | 12.88413 | 36906 ft | 398 kts | 200° |
| 2026-05-06 10:00 | 46.53961 | 12.87308 | 37099 ft | 399 kts | 200° |
| 2026-05-06 10:00 | 46.51283 | 12.86192 | 37119 ft | 402 kts | 200° |
| 2026-05-06 10:01 | 46.48602 | 12.85090 | 37417 ft | 400 kts | 200° |
| 2026-05-06 10:01 | 46.45917 | 12.83982 | 37544 ft | 402 kts | 200° |
| 2026-05-06 10:01 | 46.43230 | 12.82874 | 37742 ft | 401 kts | 200° |
| 2026-05-06 10:01 | 46.40550 | 12.81769 | 37944 ft | 401 kts | 200° |
| 2026-05-06 10:02 | 46.35172 | 12.79557 | 37939 ft | 401 kts | 200° |
| 2026-05-06 10:02 | 46.29804 | 12.77349 | 37952 ft | 401 kts | 200° |
| 2026-05-06 10:03 | 46.24469 | 12.75166 | 37949 ft | 401 kts | 200° |
| 2026-05-06 10:03 | 46.19096 | 12.72968 | 37918 ft | 397 kts | 200° |
| 2026-05-06 10:04 | 46.13799 | 12.70804 | 37960 ft | 399 kts | 200° |
| 2026-05-06 10:04 | 46.08470 | 12.68632 | 37913 ft | 397 kts | 200° |
| 2026-05-06 10:05 | 46.03134 | 12.66463 | 37937 ft | 399 kts | 200° |
| 2026-05-06 10:05 | 45.97795 | 12.64296 | 37939 ft | 399 kts | 200° |
| 2026-05-06 10:06 | 45.92458 | 12.62135 | 37941 ft | 399 kts | 200° |
| 2026-05-06 10:06 | 45.87117 | 12.59976 | 37930 ft | 399 kts | 200° |
| 2026-05-06 10:07 | 45.81800 | 12.57831 | 37922 ft | 395 kts | 200° |
| 2026-05-06 10:07 | 45.76513 | 12.55702 | 37934 ft | 395 kts | 200° |
| 2026-05-06 10:08 | 45.71215 | 12.53574 | 37932 ft | 395 kts | 200° |
| 2026-05-06 10:08 | 45.65918 | 12.51450 | 37918 ft | 395 kts | 200° |
| 2026-05-06 10:09 | 45.60620 | 12.49330 | 37932 ft | 395 kts | 200° |
| 2026-05-06 10:09 | 45.55325 | 12.47215 | 37937 ft | 395 kts | 200° |
| 2026-05-06 10:10 | 45.50025 | 12.45102 | 37938 ft | 395 kts | 200° |
| 2026-05-06 10:10 | 45.44728 | 12.42994 | 37936 ft | 395 kts | 200° |
| 2026-05-06 10:11 | 45.39430 | 12.40891 | 37936 ft | 395 kts | 200° |
| 2026-05-06 10:11 | 45.34131 | 12.38791 | 37936 ft | 395 kts | 200° |
| 2026-05-06 10:12 | 45.28869 | 12.36710 | 37918 ft | 395 kts | 200° |
| 2026-05-06 10:12 | 45.23569 | 12.34617 | 37929 ft | 395 kts | 200° |
| 2026-05-06 10:13 | 45.18271 | 12.32529 | 37903 ft | 395 kts | 200° |
| 2026-05-06 10:13 | 45.12979 | 12.30448 | 37932 ft | 395 kts | 200° |
| 2026-05-06 10:14 | 45.07680 | 12.28377 | 37921 ft | 395 kts | 199° |
| 2026-05-06 10:14 | 45.02347 | 12.26467 | 37922 ft | 395 kts | 199° |
| 2026-05-06 10:15 | 44.97014 | 12.24549 | 37922 ft | 395 kts | 199° |
| 2026-05-06 10:15 | 44.91683 | 12.22632 | 37916 ft | 395 kts | 199° |
| 2026-05-06 10:16 | 44.86364 | 12.20723 | 37934 ft | 394 kts | 199° |
| 2026-05-06 10:16 | 44.81036 | 12.18814 | 37878 ft | 393 kts | 199° |
| 2026-05-06 10:17 | 44.75726 | 12.16916 | 37921 ft | 395 kts | 199° |
| 2026-05-06 10:17 | 44.70407 | 12.15018 | 37913 ft | 394 kts | 198° |
| 2026-05-06 10:18 | 44.65089 | 12.13124 | 37914 ft | 394 kts | 198° |
| 2026-05-06 10:18 | 44.59771 | 12.11233 | 37915 ft | 394 kts | 198° |
| 2026-05-06 10:19 | 44.54451 | 12.09346 | 37895 ft | 394 kts | 198° |
| 2026-05-06 10:19 | 44.49134 | 12.07462 | 37915 ft | 394 kts | 198° |
| 2026-05-06 10:20 | 44.43820 | 12.05584 | 37920 ft | 394 kts | 198° |
| 2026-05-06 10:20 | 44.38506 | 12.03709 | 37913 ft | 394 kts | 198° |
| 2026-05-06 10:21 | 44.33185 | 12.01836 | 37919 ft | 395 kts | 198° |
| 2026-05-06 10:21 | 44.27843 | 11.99957 | 37907 ft | 396 kts | 198° |
| 2026-05-06 10:22 | 44.22537 | 11.98096 | 37911 ft | 396 kts | 198° |
| 2026-05-06 10:22 | 44.17192 | 11.96224 | 37913 ft | 396 kts | 198° |
| 2026-05-06 10:23 | 44.11850 | 11.94356 | 37917 ft | 396 kts | 198° |
| 2026-05-06 10:23 | 44.07367 | 11.92791 | 37879 ft | 396 kts | 198° |
| 2026-05-06 10:24 | 44.02016 | 11.90929 | 37928 ft | 397 kts | 198° |
| 2026-05-06 10:24 | 43.96670 | 11.89070 | 37922 ft | 397 kts | 197° |
| 2026-05-06 10:25 | 43.91311 | 11.87211 | 37923 ft | 400 kts | 197° |
| 2026-05-06 10:25 | 43.85877 | 11.85328 | 37933 ft | 400 kts | 197° |
| 2026-05-06 10:26 | 43.80467 | 11.83510 | 37914 ft | 400 kts | 196° |
| 2026-05-06 10:26 | 43.77735 | 11.82989 | 37919 ft | 408 kts | 183° |
| 2026-05-06 10:26 | 43.74897 | 11.83528 | 37969 ft | 416 kts | 172° |
| 2026-05-06 10:27 | 43.69178 | 11.85218 | 37928 ft | 417 kts | 172° |
| 2026-05-06 10:27 | 43.63536 | 11.86975 | 37948 ft | 419 kts | 172° |
| 2026-05-06 10:28 | 43.57824 | 11.88789 | 37952 ft | 419 kts | 172° |
| 2026-05-06 10:28 | 43.52186 | 11.90581 | 37968 ft | 419 kts | 172° |
| 2026-05-06 10:29 | 43.46507 | 11.92382 | 37970 ft | 419 kts | 172° |
| 2026-05-06 10:29 | 43.40832 | 11.94179 | 37962 ft | 418 kts | 172° |
| 2026-05-06 10:30 | 43.35168 | 11.95968 | 37955 ft | 417 kts | 172° |
| 2026-05-06 10:30 | 43.29520 | 11.97750 | 37984 ft | 417 kts | 172° |
| 2026-05-06 10:31 | 43.23866 | 11.99530 | 37962 ft | 416 kts | 172° |
| 2026-05-06 10:31 | 43.18216 | 12.01304 | 37954 ft | 416 kts | 172° |
| 2026-05-06 10:32 | 43.12580 | 12.03072 | 37967 ft | 415 kts | 172° |
| 2026-05-06 10:32 | 43.09799 | 12.03944 | 37961 ft | 403 kts | 173° |
| 2026-05-06 10:32 | 43.07115 | 12.04785 | 37823 ft | 390 kts | 173° |
| 2026-05-06 10:33 | 43.04483 | 12.05606 | 37346 ft | 386 kts | 173° |
| 2026-05-06 10:33 | 43.01858 | 12.06425 | 36819 ft | 388 kts | 173° |
| 2026-05-06 10:33 | 42.99215 | 12.07250 | 36336 ft | 391 kts | 173° |
| 2026-05-06 10:33 | 42.96564 | 12.08076 | 35876 ft | 390 kts | 173° |
| 2026-05-06 10:34 | 42.93930 | 12.08897 | 35417 ft | 387 kts | 173° |
| 2026-05-06 10:34 | 42.91318 | 12.09710 | 34961 ft | 383 kts | 173° |
| 2026-05-06 10:34 | 42.88728 | 12.10515 | 34511 ft | 381 kts | 173° |
| 2026-05-06 10:34 | 42.86152 | 12.11316 | 34069 ft | 378 kts | 173° |
| 2026-05-06 10:35 | 42.83592 | 12.12110 | 33577 ft | 376 kts | 173° |
| 2026-05-06 10:35 | 42.81050 | 12.12900 | 33068 ft | 374 kts | 173° |
| 2026-05-06 10:35 | 42.78533 | 12.13679 | 32650 ft | 369 kts | 173° |
| 2026-05-06 10:35 | 42.76024 | 12.14193 | 32182 ft | 359 kts | 185° |
| 2026-05-06 10:36 | 42.73598 | 12.13707 | 31698 ft | 349 kts | 202° |
| 2026-05-06 10:36 | 42.71467 | 12.12262 | 31307 ft | 340 kts | 218° |
| 2026-05-06 10:36 | 42.69756 | 12.10110 | 30980 ft | 333 kts | 231° |
| 2026-05-06 10:36 | 42.68511 | 12.07486 | 30627 ft | 330 kts | 242° |
| 2026-05-06 10:37 | 42.67544 | 12.04671 | 30254 ft | 327 kts | 245° |
| 2026-05-06 10:37 | 42.66677 | 12.01818 | 29855 ft | 326 kts | 246° |
| 2026-05-06 10:37 | 42.65883 | 11.98939 | 29439 ft | 324 kts | 247° |
| 2026-05-06 10:37 | 42.65134 | 11.96045 | 28999 ft | 327 kts | 248° |
| 2026-05-06 10:38 | 42.64400 | 11.93106 | 28490 ft | 331 kts | 249° |
| 2026-05-06 10:38 | 42.63680 | 11.90175 | 28019 ft | 332 kts | 249° |
| 2026-05-06 10:38 | 42.62956 | 11.87177 | 27545 ft | 330 kts | 249° |
| 2026-05-06 10:38 | 42.62245 | 11.84215 | 27080 ft | 330 kts | 249° |
| 2026-05-06 10:39 | 42.61536 | 11.81256 | 26605 ft | 330 kts | 250° |
| 2026-05-06 10:39 | 42.60837 | 11.78337 | 26169 ft | 330 kts | 250° |
| 2026-05-06 10:39 | 42.60128 | 11.75375 | 25686 ft | 331 kts | 250° |
| 2026-05-06 10:39 | 42.59412 | 11.72389 | 25123 ft | 335 kts | 250° |
| 2026-05-06 10:40 | 42.58688 | 11.69373 | 24585 ft | 338 kts | 250° |
| 2026-05-06 10:40 | 42.57953 | 11.66319 | 24067 ft | 342 kts | 250° |
| 2026-05-06 10:40 | 42.57213 | 11.63244 | 23535 ft | 344 kts | 250° |
| 2026-05-06 10:40 | 42.56464 | 11.60147 | 22906 ft | 347 kts | 249° |
| 2026-05-06 10:41 | 42.55339 | 11.57276 | 22265 ft | 346 kts | 230° |
| 2026-05-06 10:41 | 42.53480 | 11.55224 | 21661 ft | 349 kts | 208° |
| 2026-05-06 10:41 | 42.51179 | 11.54271 | 21066 ft | 347 kts | 189° |
| 2026-05-06 10:41 | 42.48780 | 11.54473 | 20479 ft | 348 kts | 170° |
| 2026-05-06 10:42 | 42.46488 | 11.55481 | 19891 ft | 343 kts | 166° |
| 2026-05-06 10:42 | 42.44241 | 11.56497 | 19309 ft | 337 kts | 166° |
| 2026-05-06 10:42 | 42.42033 | 11.57511 | 18724 ft | 333 kts | 166° |
| 2026-05-06 10:42 | 42.39857 | 11.58521 | 18156 ft | 329 kts | 166° |
| 2026-05-06 10:43 | 42.37710 | 11.59520 | 17507 ft | 325 kts | 166° |
| 2026-05-06 10:43 | 42.35586 | 11.60530 | 16877 ft | 322 kts | 162° |
| 2026-05-06 10:43 | 42.33668 | 11.62125 | 16242 ft | 329 kts | 142° |
| 2026-05-06 10:44 | 42.30935 | 11.67156 | 14978 ft | 333 kts | 129° |
| 2026-05-06 10:44 | 42.29634 | 11.69733 | 14349 ft | 331 kts | 129° |
| 2026-05-06 10:44 | 42.28327 | 11.72289 | 13735 ft | 330 kts | 129° |
| 2026-05-06 10:44 | 42.27021 | 11.74826 | 13044 ft | 329 kts | 130° |
| 2026-05-06 10:45 | 42.25717 | 11.77350 | 12377 ft | 327 kts | 130° |
| 2026-05-06 10:45 | 42.24415 | 11.79863 | 11698 ft | 326 kts | 130° |
| 2026-05-06 10:45 | 42.23119 | 11.82364 | 11081 ft | 325 kts | 130° |
| 2026-05-06 10:45 | 42.21822 | 11.84859 | 10445 ft | 324 kts | 130° |
| 2026-05-06 10:46 | 42.20539 | 11.87340 | 9806 ft | 322 kts | 128° |
| 2026-05-06 10:46 | 42.19656 | 11.90130 | 9155 ft | 328 kts | 105° |
| 2026-05-06 10:46 | 42.19637 | 11.93186 | 8553 ft | 327 kts | 79° |
| 2026-05-06 10:46 | 42.20299 | 11.96094 | 8068 ft | 321 kts | 73° |
| 2026-05-06 10:47 | 42.20964 | 11.98942 | 7539 ft | 316 kts | 74° |
| 2026-05-06 10:47 | 42.21629 | 12.01752 | 6999 ft | 313 kts | 74° |
| 2026-05-06 10:47 | 42.22303 | 12.04526 | 6485 ft | 309 kts | 73° |
| 2026-05-06 10:47 | 42.22964 | 12.07262 | 5939 ft | 305 kts | 74° |
| 2026-05-06 10:48 | 42.23637 | 12.09958 | 5417 ft | 301 kts | 75° |
| 2026-05-06 10:48 | 42.24323 | 12.12607 | 4890 ft | 297 kts | 75° |
| 2026-05-06 10:48 | 42.24618 | 12.15286 | 4421 ft | 280 kts | 100° |
| 2026-05-06 10:48 | 42.24046 | 12.17618 | 4356 ft | 247 kts | 129° |
| 2026-05-06 10:49 | 42.22963 | 12.19199 | 4393 ft | 215 kts | 148° |
| 2026-05-06 10:49 | 42.21691 | 12.20129 | 4359 ft | 204 kts | 165° |
| 2026-05-06 10:49 | 42.20324 | 12.20478 | 4298 ft | 198 kts | 181° |
| 2026-05-06 10:49 | 42.18952 | 12.20320 | 4154 ft | 200 kts | 185° |
| 2026-05-06 10:50 | 42.17553 | 12.20252 | 4090 ft | 201 kts | 183° |
| 2026-05-06 10:50 | 42.16144 | 12.20169 | 3957 ft | 204 kts | 184° |
| 2026-05-06 10:50 | 42.14736 | 12.20080 | 3822 ft | 202 kts | 184° |
| 2026-05-06 10:50 | 42.13339 | 12.19985 | 3651 ft | 199 kts | 185° |
| 2026-05-06 10:51 | 42.11974 | 12.19880 | 3466 ft | 198 kts | 184° |
| 2026-05-06 10:51 | 42.10578 | 12.19767 | 3286 ft | 200 kts | 184° |
| 2026-05-06 10:51 | 42.09205 | 12.19656 | 3107 ft | 200 kts | 184° |
| 2026-05-06 10:51 | 42.07821 | 12.19542 | 2951 ft | 199 kts | 184° |
| 2026-05-06 10:52 | 42.06437 | 12.19428 | 2791 ft | 199 kts | 184° |
| 2026-05-06 10:52 | 42.05064 | 12.19316 | 2634 ft | 195 kts | 183° |
| 2026-05-06 10:52 | 42.03715 | 12.19204 | 2508 ft | 195 kts | 183° |
| 2026-05-06 10:52 | 42.02382 | 12.19104 | 2463 ft | 186 kts | 181° |
| 2026-05-06 10:53 | 42.01164 | 12.19272 | 2487 ft | 168 kts | 170° |
| 2026-05-06 10:53 | 42.00043 | 12.19682 | 2495 ft | 168 kts | 166° |
| 2026-05-06 10:53 | 41.98918 | 12.20151 | 2482 ft | 170 kts | 165° |
| 2026-05-06 10:53 | 41.97786 | 12.20627 | 2490 ft | 170 kts | 165° |
| 2026-05-06 10:54 | 41.96659 | 12.21100 | 2424 ft | 170 kts | 165° |
| 2026-05-06 10:54 | 41.95554 | 12.21564 | 2264 ft | 164 kts | 165° |
| 2026-05-06 10:54 | 41.94478 | 12.22015 | 2059 ft | 156 kts | 165° |
| 2026-05-06 10:54 | 41.93495 | 12.22428 | 1889 ft | 145 kts | 165° |
| 2026-05-06 10:55 | 41.92542 | 12.22828 | 1693 ft | 144 kts | 164° |
| 2026-05-06 10:55 | 41.91579 | 12.23232 | 1497 ft | 146 kts | 163° |
| 2026-05-06 10:55 | 41.90639 | 12.23625 | 1316 ft | 135 kts | 163° |
| 2026-05-06 10:55 | 41.89774 | 12.23986 | 1124 ft | 127 kts | 162° |
| 2026-05-06 10:56 | 41.88951 | 12.24334 | 975 ft | 121 kts | 164° |
| 2026-05-06 10:56 | 41.88155 | 12.24667 | 798 ft | 120 kts | 165° |
| 2026-05-06 10:56 | 41.87340 | 12.25001 | 654 ft | 124 kts | 162° |
| 2026-05-06 10:56 | 41.86501 | 12.25357 | 488 ft | 129 kts | 161° |
| 2026-05-06 10:57 | 41.85649 | 12.25717 | 317 ft | 127 kts | 163° |
| 2026-05-06 10:57 | 41.84814 | 12.26061 | 135 ft | 125 kts | 162° |
| 2026-05-06 10:57 | 41.84009 | 12.26391 | 21 ft | 114 kts | 163° |
| 2026-05-06 10:57 | 41.83398 | 12.26643 | 15 ft | 75 kts | 162° |
| 2026-05-06 10:58 | 41.82970 | 12.26826 | 15 ft | 56 kts | 162° |
| 2026-05-06 10:58 | 41.82697 | 12.26862 | 13 ft | 26 kts | 187° |
| 2026-05-06 10:58 | 41.82527 | 12.26816 | 13 ft | 25 kts | 192° |
| 2026-05-06 10:58 | 41.82377 | 12.26774 | 13 ft | 23 kts | 184° |
| 2026-05-06 10:59 | 41.82195 | 12.26832 | 13 ft | 31 kts | 163° |
| 2026-05-06 10:59 | 41.82030 | 12.26902 | 13 ft | 26 kts | 163° |
| 2026-05-06 10:59 | 41.81849 | 12.26977 | 14 ft | 28 kts | 162° |
| 2026-05-06 10:59 | 41.81671 | 12.27051 | 14 ft | 22 kts | 163° |
| 2026-05-06 11:00 | 41.81520 | 12.27115 | 16 ft | 24 kts | 162° |
| 2026-05-06 11:00 | 41.81356 | 12.27184 | 14 ft | 26 kts | 162° |
| 2026-05-06 11:00 | 41.81177 | 12.27259 | 17 ft | 28 kts | 162° |
| 2026-05-06 11:00 | 41.81027 | 12.27321 | 15 ft | 23 kts | 162° |
| 2026-05-06 11:01 | 41.80869 | 12.27341 | 15 ft | 21 kts | 189° |
| 2026-05-06 11:01 | 41.80729 | 12.27307 | 15 ft | 18 kts | 197° |
| 2026-05-06 11:01 | 41.80644 | 12.27181 | 16 ft | 20 kts | 249° |
| 2026-05-06 11:01 | 41.80592 | 12.26994 | 16 ft | 23 kts | 249° |
| 2026-05-06 11:02 | 41.80535 | 12.26787 | 17 ft | 25 kts | 250° |
| 2026-05-06 11:02 | 41.80474 | 12.26565 | 18 ft | 26 kts | 249° |
| 2026-05-06 11:02 | 41.80429 | 12.26406 | 18 ft | 15 kts | 239° |
| 2026-05-06 11:02 | 41.80329 | 12.26380 | 16 ft | 18 kts | 160° |
| 2026-05-06 11:03 | 41.80202 | 12.26410 | 16 ft | 20 kts | 169° |
| 2026-05-06 11:03 | 41.80079 | 12.26465 | 16 ft | 15 kts | 160° |
| 2026-05-06 11:03 | 41.79973 | 12.26518 | 16 ft | 18 kts | 160° |
| 2026-05-06 11:03 | 41.79849 | 12.26579 | 16 ft | 20 kts | 160° |
| 2026-05-06 11:04 | 41.79755 | 12.26623 | 16 ft | 7 kts | 175° |
| 2026-05-06 11:04 | 41.79724 | 12.26571 | 19 ft | 9 kts | 250° |
| 2026-05-06 11:04 | 41.79726 | 12.26489 | 18 ft | 10 kts | 322° |
| 2026-05-06 11:04 | 41.79802 | 12.26449 | 18 ft | 13 kts | 339° |
| 2026-05-06 11:05 | 41.79883 | 12.26409 | 16 ft | 8 kts | 340° |
| 2026-05-06 11:05 | 41.79942 | 12.26372 | 18 ft | 10 kts | 308° |
| 2026-05-06 11:05 | 41.79926 | 12.26277 | 18 ft | 12 kts | 249° |
| 2026-05-06 11:05 | 41.79879 | 12.26198 | 16 ft | 12 kts | 201° |
| 2026-05-06 11:06 | 41.79797 | 12.26149 | 16 ft | 13 kts | 205° |
| 2026-05-06 11:06 | 41.79707 | 12.26151 | 16 ft | 14 kts | 179° |
| 2026-05-06 11:06 | 41.79615 | 12.26097 | 16 ft | 14 kts | 205° |
| 2026-05-06 11:06 | 41.79580 | 12.26091 | 16 ft | 5 kts | 154° |
| 2026-05-06 11:07 | 41.79560 | 12.26138 | 16 ft | 0 kts | 115° |
| 2026-05-06 11:07 | 41.79556 | 12.26151 | 16 ft | 2 kts | 114° |
| 2026-05-06 11:07 | 41.79554 | 12.26155 | 16 ft | 0 kts | 114° |